sensor_id;sensor_type;location;lat;lon;timestamp;pressure;altitude;pressure_sealevel;temperature;humidity
71504;BME280;59323;50.874;7.028;2023-04-09T00:02:12;102138.72;;;7.16;93.92
71504;BME280;59323;50.874;7.028;2023-04-09T00:04:38;102137.69;;;7.12;94.38
71504;BME280;59323;50.874;7.028;2023-04-09T00:07:03;102146.91;;;7.11;94.42
71504;BME280;59323;50.874;7.028;2023-04-09T00:09:29;102138.94;;;7.06;94.72
71504;BME280;59323;50.874;7.028;2023-04-09T00:11:54;102125.34;;;6.97;94.68
71504;BME280;59323;50.874;7.028;2023-04-09T00:14:21;102132.66;;;6.96;94.87
71504;BME280;59323;50.874;7.028;2023-04-09T00:16:46;102130.56;;;6.93;94.57
71504;BME280;59323;50.874;7.028;2023-04-09T00:19:11;102125.16;;;6.93;94.65
71504;BME280;59323;50.874;7.028;2023-04-09T00:21:37;102138.06;;;6.96;94.70
71504;BME280;59323;50.874;7.028;2023-04-09T00:24:03;102133.75;;;6.95;94.11
71504;BME280;59323;50.874;7.028;2023-04-09T00:26:30;102136.47;;;6.95;94.71
71504;BME280;59323;50.874;7.028;2023-04-09T00:28:55;102124.06;;;6.94;94.84
71504;BME280;59323;50.874;7.028;2023-04-09T00:31:20;102127.38;;;6.91;95.28
71504;BME280;59323;50.874;7.028;2023-04-09T00:33:46;102127.97;;;6.88;94.98
71504;BME280;59323;50.874;7.028;2023-04-09T00:36:11;102134.06;;;6.94;94.83
71504;BME280;59323;50.874;7.028;2023-04-09T00:38:36;102129.56;;;6.89;94.73
71504;BME280;59323;50.874;7.028;2023-04-09T00:41:02;102131.97;;;6.91;94.91
71504;BME280;59323;50.874;7.028;2023-04-09T00:43:27;102125.88;;;6.85;95.38
71504;BME280;59323;50.874;7.028;2023-04-09T00:45:53;102120.97;;;6.87;95.39
71504;BME280;59323;50.874;7.028;2023-04-09T00:48:19;102130.97;;;6.87;95.39
71504;BME280;59323;50.874;7.028;2023-04-09T00:50:45;102134.50;;;6.87;94.97
71504;BME280;59323;50.874;7.028;2023-04-09T00:53:11;102131.28;;;6.85;94.92
71504;BME280;59323;50.874;7.028;2023-04-09T00:55:39;102131.28;;;6.85;95.31
71504;BME280;59323;50.874;7.028;2023-04-09T00:58:05;102123.78;;;6.82;95.35
71504;BME280;59323;50.874;7.028;2023-04-09T01:00:30;102119.19;;;6.83;95.40
71504;BME280;59323;50.874;7.028;2023-04-09T01:02:56;102122.19;;;6.81;95.25
71504;BME280;59323;50.874;7.028;2023-04-09T01:05:24;102130.00;;;6.83;95.61
71504;BME280;59323;50.874;7.028;2023-04-09T01:08:09;102131.91;;;6.82;94.96
71504;BME280;59323;50.874;7.028;2023-04-09T01:10:52;102126.81;;;6.81;94.60
71504;BME280;59323;50.874;7.028;2023-04-09T01:13:29;102122.63;;;6.75;95.28
71504;BME280;59323;50.874;7.028;2023-04-09T01:15:57;102117.03;;;6.71;94.80
71504;BME280;59323;50.874;7.028;2023-04-09T01:18:40;102121.81;;;6.74;95.03
71504;BME280;59323;50.874;7.028;2023-04-09T01:21:15;102125.94;;;6.72;94.82
71504;BME280;59323;50.874;7.028;2023-04-09T01:28:48;102115.34;;;6.61;94.64
71504;BME280;59323;50.874;7.028;2023-04-09T01:31:17;102112.34;;;6.63;95.27
71504;BME280;59323;50.874;7.028;2023-04-09T01:33:44;102112.94;;;6.60;95.21
71504;BME280;59323;50.874;7.028;2023-04-09T01:36:13;102115.16;;;6.58;95.16
71504;BME280;59323;50.874;7.028;2023-04-09T01:38:41;102108.75;;;6.54;95.49
71504;BME280;59323;50.874;7.028;2023-04-09T01:41:13;102110.66;;;6.53;95.49
71504;BME280;59323;50.874;7.028;2023-04-09T01:43:40;102108.03;;;6.48;95.41
71504;BME280;59323;50.874;7.028;2023-04-09T01:46:06;102112.94;;;6.46;95.29
71504;BME280;59323;50.874;7.028;2023-04-09T01:48:32;102117.53;;;6.46;95.57
71504;BME280;59323;50.874;7.028;2023-04-09T01:50:58;102124.03;;;6.45;95.37
71504;BME280;59323;50.874;7.028;2023-04-09T01:53:24;102116.53;;;6.42;95.43
71504;BME280;59323;50.874;7.028;2023-04-09T01:55:58;102113.34;;;6.40;95.83
71504;BME280;59323;50.874;7.028;2023-04-09T01:58:24;102108.56;;;6.36;95.27
71504;BME280;59323;50.874;7.028;2023-04-09T02:00:52;102112.34;;;6.35;95.35
71504;BME280;59323;50.874;7.028;2023-04-09T02:03:23;102119.34;;;6.36;95.42
71504;BME280;59323;50.874;7.028;2023-04-09T02:06:14;102115.16;;;6.30;95.41
71504;BME280;59323;50.874;7.028;2023-04-09T02:08:43;102114.16;;;6.26;95.67
71504;BME280;59323;50.874;7.028;2023-04-09T02:11:10;102113.06;;;6.27;95.58
71504;BME280;59323;50.874;7.028;2023-04-09T02:13:39;102108.25;;;6.24;95.89
71504;BME280;59323;50.874;7.028;2023-04-09T02:16:06;102110.97;;;6.24;95.68
71504;BME280;59323;50.874;7.028;2023-04-09T02:18:32;102107.47;;;6.24;95.31
71504;BME280;59323;50.874;7.028;2023-04-09T02:20:58;102106.47;;;6.20;95.27
71504;BME280;59323;50.874;7.028;2023-04-09T02:23:24;102108.66;;;6.18;95.61
71504;BME280;59323;50.874;7.028;2023-04-09T02:25:52;102101.69;;;6.17;96.08
71504;BME280;59323;50.874;7.028;2023-04-09T02:28:17;102097.19;;;6.12;95.41
71504;BME280;59323;50.874;7.028;2023-04-09T02:30:43;102106.06;;;6.13;95.12
71504;BME280;59323;50.874;7.028;2023-04-09T02:33:08;102095.38;;;6.08;94.62
71504;BME280;59323;50.874;7.028;2023-04-09T02:35:34;102094.28;;;6.09;95.01
71504;BME280;59323;50.874;7.028;2023-04-09T02:38:00;102103.97;;;6.10;95.35
71504;BME280;59323;50.874;7.028;2023-04-09T02:40:25;102103.47;;;6.08;94.88
71504;BME280;59323;50.874;7.028;2023-04-09T02:42:51;102101.06;;;6.06;94.69
71504;BME280;59323;50.874;7.028;2023-04-09T02:45:17;102092.59;;;5.99;94.93
71504;BME280;59323;50.874;7.028;2023-04-09T02:47:42;102104.97;;;6.00;95.71
71504;BME280;59323;50.874;7.028;2023-04-09T02:50:08;102095.28;;;5.99;95.14
71504;BME280;59323;50.874;7.028;2023-04-09T02:52:33;102099.69;;;5.95;95.37
71504;BME280;59323;50.874;7.028;2023-04-09T02:54:58;102093.84;;;5.88;95.26
71504;BME280;59323;50.874;7.028;2023-04-09T02:57:24;102093.28;;;5.91;95.95
71504;BME280;59323;50.874;7.028;2023-04-09T02:59:49;102090.06;;;5.89;96.71
71504;BME280;59323;50.874;7.028;2023-04-09T03:02:14;102090.13;;;5.84;96.53
71504;BME280;59323;50.874;7.028;2023-04-09T03:04:40;102090.06;;;5.89;96.41
71504;BME280;59323;50.874;7.028;2023-04-09T03:07:05;102079.84;;;5.86;96.07
71504;BME280;59323;50.874;7.028;2023-04-09T03:09:31;102076.63;;;5.84;96.06
71504;BME280;59323;50.874;7.028;2023-04-09T03:11:56;102093.84;;;5.88;96.53
71504;BME280;59323;50.874;7.028;2023-04-09T03:14:24;102089.56;;;5.87;96.53
71504;BME280;59323;50.874;7.028;2023-04-09T03:16:50;102087.66;;;5.87;96.65
71504;BME280;59323;50.874;7.028;2023-04-09T03:19:15;102073.44;;;5.82;96.36
71504;BME280;59323;50.874;7.028;2023-04-09T03:21:40;102077.22;;;5.81;95.96
71504;BME280;59323;50.874;7.028;2023-04-09T03:24:06;102071.84;;;5.81;95.97
71504;BME280;59323;50.874;7.028;2023-04-09T03:26:32;102078.81;;;5.82;96.06
71504;BME280;59323;50.874;7.028;2023-04-09T03:29:04;102075.44;;;5.76;96.35
71504;BME280;59323;50.874;7.028;2023-04-09T03:31:30;102073.84;;;5.75;96.02
71504;BME280;59323;50.874;7.028;2023-04-09T03:33:55;102079.22;;;5.75;96.43
71504;BME280;59323;50.874;7.028;2023-04-09T03:36:21;102075.22;;;5.72;96.41
71504;BME280;59323;50.874;7.028;2023-04-09T03:38:46;102075.03;;;5.69;96.44
71504;BME280;59323;50.874;7.028;2023-04-09T03:41:12;102070.53;;;5.64;96.54
71504;BME280;59323;50.874;7.028;2023-04-09T03:43:37;102074.81;;;5.65;96.21
71504;BME280;59323;50.874;7.028;2023-04-09T03:46:13;102076.13;;;5.68;95.95
71504;BME280;59323;50.874;7.028;2023-04-09T03:48:39;102073.22;;;5.64;96.77
71504;BME280;59323;50.874;7.028;2023-04-09T03:51:05;102063.34;;;5.60;97.26
71504;BME280;59323;50.874;7.028;2023-04-09T03:53:30;102073.31;;;5.59;96.99
71504;BME280;59323;50.874;7.028;2023-04-09T03:55:56;102074.03;;;5.65;97.04
71504;BME280;59323;50.874;7.028;2023-04-09T03:58:21;102071.13;;;5.61;96.37
71504;BME280;59323;50.874;7.028;2023-04-09T04:00:46;102068.94;;;5.63;96.54
71504;BME280;59323;50.874;7.028;2023-04-09T04:03:13;102070.81;;;5.63;95.58
71504;BME280;59323;50.874;7.028;2023-04-09T04:05:40;102065.53;;;5.58;96.62
71504;BME280;59323;50.874;7.028;2023-04-09T04:08:05;102065.44;;;5.63;95.63
71504;BME280;59323;50.874;7.028;2023-04-09T04:10:32;102063.13;;;5.56;95.77
71504;BME280;59323;50.874;7.028;2023-04-09T04:12:58;102071.72;;;5.58;96.29
71504;BME280;59323;50.874;7.028;2023-04-09T04:15:23;102062.13;;;5.52;95.76
71504;BME280;59323;50.874;7.028;2023-04-09T04:17:48;102062.63;;;5.54;96.05
71504;BME280;59323;50.874;7.028;2023-04-09T04:20:14;102067.50;;;5.52;96.14
71504;BME280;59323;50.874;7.028;2023-04-09T04:22:39;102069.13;;;5.53;95.79
71504;BME280;59323;50.874;7.028;2023-04-09T04:25:05;102069.13;;;5.53;96.07
71504;BME280;59323;50.874;7.028;2023-04-09T04:27:30;102065.81;;;5.56;95.88
71504;BME280;59323;50.874;7.028;2023-04-09T04:29:56;102062.13;;;5.52;95.51
71504;BME280;59323;50.874;7.028;2023-04-09T04:32:23;102065.03;;;5.56;94.98
71504;BME280;59323;50.874;7.028;2023-04-09T04:34:48;102068.00;;;5.54;93.90
71504;BME280;59323;50.874;7.028;2023-04-09T04:37:14;102062.72;;;5.49;94.46
71504;BME280;59323;50.874;7.028;2023-04-09T04:39:39;102060.81;;;5.50;94.57
71504;BME280;59323;50.874;7.028;2023-04-09T04:42:05;102069.72;;;5.50;94.56
71504;BME280;59323;50.874;7.028;2023-04-09T04:44:30;102068.09;;;5.49;94.62
71504;BME280;59323;50.874;7.028;2023-04-09T04:46:55;102071.41;;;5.46;94.14
71504;BME280;59323;50.874;7.028;2023-04-09T04:49:21;102076.78;;;5.46;93.37
71504;BME280;59323;50.874;7.028;2023-04-09T04:51:46;102073.88;;;5.43;94.11
71504;BME280;59323;50.874;7.028;2023-04-09T04:54:11;102073.88;;;5.43;93.84
71504;BME280;59323;50.874;7.028;2023-04-09T04:56:37;102075.78;;;5.42;93.92
71504;BME280;59323;50.874;7.028;2023-04-09T04:59:02;102067.78;;;5.37;93.04
71504;BME280;59323;50.874;7.028;2023-04-09T05:01:27;102077.47;;;5.38;92.99
71504;BME280;59323;50.874;7.028;2023-04-09T05:03:53;102076.97;;;5.36;92.83
71504;BME280;59323;50.874;7.028;2023-04-09T05:06:18;102067.97;;;5.27;92.37
71504;BME280;59323;50.874;7.028;2023-04-09T05:08:43;102068.16;;;5.30;92.76
71504;BME280;59323;50.874;7.028;2023-04-09T05:11:12;102084.34;;;5.30;92.85
71504;BME280;59323;50.874;7.028;2023-04-09T05:13:39;102077.34;;;5.29;92.73
71504;BME280;59323;50.874;7.028;2023-04-09T05:16:07;102077.66;;;5.28;93.08
71504;BME280;59323;50.874;7.028;2023-04-09T05:18:32;102075.03;;;5.23;91.85
71504;BME280;59323;50.874;7.028;2023-04-09T05:20:58;102074.94;;;5.28;91.75
71504;BME280;59323;50.874;7.028;2023-04-09T05:23:23;102082.16;;;5.32;91.55
71504;BME280;59323;50.874;7.028;2023-04-09T05:25:48;102075.16;;;5.31;91.74
71504;BME280;59323;50.874;7.028;2023-04-09T05:28:14;102079.44;;;5.32;91.29
71504;BME280;59323;50.874;7.028;2023-04-09T05:30:44;102087.16;;;5.39;91.68
71504;BME280;59323;50.874;7.028;2023-04-09T05:33:10;102093.34;;;5.39;92.03
71504;BME280;59323;50.874;7.028;2023-04-09T05:35:37;102093.75;;;5.47;91.02
71504;BME280;59323;50.874;7.028;2023-04-09T05:38:03;102087.88;;;5.45;90.42
71504;BME280;59323;50.874;7.028;2023-04-09T05:40:28;102096.38;;;5.52;90.99
71504;BME280;59323;50.874;7.028;2023-04-09T05:42:54;102098.97;;;5.57;89.90
71504;BME280;59323;50.874;7.028;2023-04-09T05:45:19;102095.97;;;5.58;89.67
71504;BME280;59323;50.874;7.028;2023-04-09T05:47:45;102090.59;;;5.58;88.90
71504;BME280;59323;50.874;7.028;2023-04-09T05:50:10;102096.41;;;5.65;88.83
71504;BME280;59323;50.874;7.028;2023-04-09T05:52:36;102099.59;;;5.67;88.32
71504;BME280;59323;50.874;7.028;2023-04-09T05:55:01;102094.91;;;5.73;87.65
71504;BME280;59323;50.874;7.028;2023-04-09T05:57:27;102094.59;;;5.74;88.20
71504;BME280;59323;50.874;7.028;2023-04-09T05:59:54;102087.63;;;5.73;88.57
71504;BME280;59323;50.874;7.028;2023-04-09T06:02:20;102096.22;;;5.76;88.95
71504;BME280;59323;50.874;7.028;2023-04-09T06:04:45;102087.91;;;5.72;87.72
71504;BME280;59323;50.874;7.028;2023-04-09T06:07:10;102085.13;;;5.77;87.91
71504;BME280;59323;50.874;7.028;2023-04-09T06:09:36;102087.72;;;5.82;88.44
71504;BME280;59323;50.874;7.028;2023-04-09T06:12:02;102079.84;;;5.86;87.36
71504;BME280;59323;50.874;7.028;2023-04-09T06:14:28;102086.50;;;5.93;87.88
71504;BME280;59323;50.874;7.028;2023-04-09T06:16:53;102080.78;;;5.95;87.36
71504;BME280;59323;50.874;7.028;2023-04-09T06:19:19;102087.69;;;6.01;87.27
71504;BME280;59323;50.874;7.028;2023-04-09T06:21:44;102093.06;;;6.15;85.37
71504;BME280;59323;50.874;7.028;2023-04-09T06:24:10;102080.28;;;6.20;86.57
71504;BME280;59323;50.874;7.028;2023-04-09T06:26:35;102097.44;;;6.38;84.57
71504;BME280;59323;50.874;7.028;2023-04-09T06:29:01;102093.66;;;6.39;85.20
71504;BME280;59323;50.874;7.028;2023-04-09T06:31:26;102091.84;;;6.48;85.38
71504;BME280;59323;50.874;7.028;2023-04-09T06:33:52;102098.16;;;6.57;84.58
71504;BME280;59323;50.874;7.028;2023-04-09T06:36:18;102084.84;;;6.61;84.79
71504;BME280;59323;50.874;7.028;2023-04-09T06:38:44;102098.78;;;6.77;83.74
71504;BME280;59323;50.874;7.028;2023-04-09T06:41:09;102094.94;;;6.91;84.34
71504;BME280;59323;50.874;7.028;2023-04-09T06:43:36;102098.13;;;6.93;83.69
71504;BME280;59323;50.874;7.028;2023-04-09T06:46:02;102101.88;;;7.06;83.75
71504;BME280;59323;50.874;7.028;2023-04-09T06:48:27;102089.63;;;7.22;83.81
71504;BME280;59323;50.874;7.028;2023-04-09T06:50:53;102102.50;;;7.48;82.25
71504;BME280;59323;50.874;7.028;2023-04-09T06:53:18;102105.41;;;7.82;81.70
71504;BME280;59323;50.874;7.028;2023-04-09T06:55:44;102109.97;;;8.04;80.83
71504;BME280;59323;50.874;7.028;2023-04-09T06:58:10;102107.91;;;8.10;79.23
71504;BME280;59323;50.874;7.028;2023-04-09T07:00:35;102116.22;;;8.22;78.12
71504;BME280;59323;50.874;7.028;2023-04-09T07:03:01;102118.84;;;8.44;78.05
71504;BME280;59323;50.874;7.028;2023-04-09T07:05:26;102119.72;;;8.62;77.13
71504;BME280;59323;50.874;7.028;2023-04-09T07:07:51;102121.97;;;8.69;75.54
71504;BME280;59323;50.874;7.028;2023-04-09T07:10:17;102116.38;;;8.74;75.61
71504;BME280;59323;50.874;7.028;2023-04-09T07:12:42;102114.94;;;8.85;75.70
71504;BME280;59323;50.874;7.028;2023-04-09T07:15:08;102124.19;;;8.93;75.09
71504;BME280;59323;50.874;7.028;2023-04-09T07:17:34;102120.69;;;9.01;74.76
71504;BME280;59323;50.874;7.028;2023-04-09T07:20:00;102124.06;;;9.24;75.57
71504;BME280;59323;50.874;7.028;2023-04-09T07:22:28;102120.53;;;9.40;74.09
71504;BME280;59323;50.874;7.028;2023-04-09T07:24:54;102128.44;;;9.63;74.64
71504;BME280;59323;50.874;7.028;2023-04-09T07:27:26;102125.72;;;9.71;71.86
71504;BME280;59323;50.874;7.028;2023-04-09T07:29:58;102121.53;;;9.74;71.83
71504;BME280;59323;50.874;7.028;2023-04-09T07:32:26;102125.81;;;9.92;71.59
71504;BME280;59323;50.874;7.028;2023-04-09T07:34:53;102128.94;;;10.11;69.38
71504;BME280;59323;50.874;7.028;2023-04-09T07:37:18;102124.75;;;10.23;69.07
71504;BME280;59323;50.874;7.028;2023-04-09T07:39:45;102125.69;;;10.56;68.41
71504;BME280;59323;50.874;7.028;2023-04-09T07:42:11;102121.06;;;10.77;67.77
71504;BME280;59323;50.874;7.028;2023-04-09T07:44:36;102121.41;;;10.97;65.99
71504;BME280;59323;50.874;7.028;2023-04-09T07:47:03;102122.00;;;11.23;66.57
71504;BME280;59323;50.874;7.028;2023-04-09T07:49:29;102111.97;;;11.15;62.85
71504;BME280;59323;50.874;7.028;2023-04-09T07:51:55;102114.00;;;11.39;64.96
71504;BME280;59323;50.874;7.028;2023-04-09T07:54:20;102121.81;;;11.73;63.42
71504;BME280;59323;50.874;7.028;2023-04-09T07:56:46;102127.19;;;11.94;62.64
71504;BME280;59323;50.874;7.028;2023-04-09T07:59:12;102121.66;;;12.15;62.60
71504;BME280;59323;50.874;7.028;2023-04-09T08:01:39;102128.78;;;12.20;59.79
71504;BME280;59323;50.874;7.028;2023-04-09T08:04:04;102124.72;;;12.38;61.47
71504;BME280;59323;50.874;7.028;2023-04-09T08:06:30;102135.34;;;12.67;60.14
71504;BME280;59323;50.874;7.028;2023-04-09T08:08:56;102134.88;;;12.78;58.99
71504;BME280;59323;50.874;7.028;2023-04-09T08:11:21;102131.59;;;12.72;57.05
71504;BME280;59323;50.874;7.028;2023-04-09T08:13:52;102130.28;;;12.94;59.45
71504;BME280;59323;50.874;7.028;2023-04-09T08:16:18;102124.91;;;13.10;58.56
71504;BME280;59323;50.874;7.028;2023-04-09T08:18:45;102126.31;;;13.04;57.98
71504;BME280;59323;50.874;7.028;2023-04-09T08:21:11;102128.06;;;13.24;59.24
71504;BME280;59323;50.874;7.028;2023-04-09T08:23:36;102134.44;;;13.44;57.64
71504;BME280;59323;50.874;7.028;2023-04-09T08:26:02;102131.09;;;13.35;56.33
71504;BME280;59323;50.874;7.028;2023-04-09T08:28:27;102129.19;;;13.51;55.35
71504;BME280;59323;50.874;7.028;2023-04-09T08:30:52;102128.09;;;13.68;57.17
71504;BME280;59323;50.874;7.028;2023-04-09T08:33:18;102124.47;;;13.95;56.32
71504;BME280;59323;50.874;7.028;2023-04-09T08:35:43;102120.59;;;14.12;55.77
71504;BME280;59323;50.874;7.028;2023-04-09T08:38:09;102123.84;;;14.33;55.00
71504;BME280;59323;50.874;7.028;2023-04-09T08:40:35;102125.94;;;14.55;55.81
71504;BME280;59323;50.874;7.028;2023-04-09T08:43:03;102124.53;;;14.81;55.03
71504;BME280;59323;50.874;7.028;2023-04-09T08:45:29;102130.06;;;14.65;51.91
71504;BME280;59323;50.874;7.028;2023-04-09T08:47:55;102124.16;;;14.82;54.07
71504;BME280;59323;50.874;7.028;2023-04-09T08:50:24;102125.41;;;14.85;53.23
71504;BME280;59323;50.874;7.028;2023-04-09T08:52:50;102125.13;;;15.09;54.16
71504;BME280;59323;50.874;7.028;2023-04-09T08:55:15;102126.69;;;15.30;54.86
71504;BME280;59323;50.874;7.028;2023-04-09T08:57:41;102123.63;;;15.54;50.36
71504;BME280;59323;50.874;7.028;2023-04-09T09:00:07;102124.72;;;15.69;51.57
71504;BME280;59323;50.874;7.028;2023-04-09T09:02:33;102112.47;;;15.85;51.99
71504;BME280;59323;50.874;7.028;2023-04-09T09:04:59;102122.59;;;15.81;50.55
71504;BME280;59323;50.874;7.028;2023-04-09T09:07:26;102117.19;;;15.85;50.52
71504;BME280;59323;50.874;7.028;2023-04-09T09:10:01;102119.16;;;16.11;50.77
71504;BME280;59323;50.874;7.028;2023-04-09T09:12:40;102117.25;;;16.15;49.46
71504;BME280;59323;50.874;7.028;2023-04-09T09:15:27;102117.41;;;15.99;44.10
71504;BME280;59323;50.874;7.028;2023-04-09T09:17:55;102106.53;;;15.80;46.65
71504;BME280;59323;50.874;7.028;2023-04-09T09:20:21;102108.97;;;15.62;46.84
71504;BME280;59323;50.874;7.028;2023-04-09T09:22:51;102116.81;;;15.87;48.25
71504;BME280;59323;50.874;7.028;2023-04-09T09:25:18;102103.38;;;16.04;44.75
71504;BME280;59323;50.874;7.028;2023-04-09T09:27:47;102111.97;;;16.03;46.02
71504;BME280;59323;50.874;7.028;2023-04-09T09:30:23;102109.94;;;15.73;43.24
71504;BME280;59323;50.874;7.028;2023-04-09T09:33:05;102118.69;;;16.05;45.14
71504;BME280;59323;50.874;7.028;2023-04-09T09:35:45;102109.94;;;16.49;46.43
71504;BME280;59323;50.874;7.028;2023-04-09T09:38:12;102107.06;;;16.38;42.04
71504;BME280;59323;50.874;7.028;2023-04-09T09:40:37;102095.97;;;16.31;42.02
71504;BME280;59323;50.874;7.028;2023-04-09T09:43:02;102095.25;;;16.34;43.94
71504;BME280;59323;50.874;7.028;2023-04-09T09:45:28;102092.81;;;16.59;45.20
71504;BME280;59323;50.874;7.028;2023-04-09T09:47:53;102095.69;;;16.66;46.21
71504;BME280;59323;50.874;7.028;2023-04-09T09:50:22;102089.09;;;17.01;46.92
71504;BME280;59323;50.874;7.028;2023-04-09T09:52:49;102086.88;;;17.14;43.59
71504;BME280;59323;50.874;7.028;2023-04-09T09:55:18;102088.56;;;17.25;44.47
71504;BME280;59323;50.874;7.028;2023-04-09T09:57:46;102095.25;;;16.91;40.79
71504;BME280;59323;50.874;7.028;2023-04-09T10:00:13;102087.91;;;16.42;42.24
71504;BME280;59323;50.874;7.028;2023-04-09T10:03:06;102086.09;;;16.00;42.65
71504;BME280;59323;50.874;7.028;2023-04-09T10:05:35;102084.69;;;16.36;45.45
71504;BME280;59323;50.874;7.028;2023-04-09T10:08:03;102074.06;;;16.35;43.77
71504;BME280;59323;50.874;7.028;2023-04-09T10:10:29;102077.38;;;15.95;42.21
71504;BME280;59323;50.874;7.028;2023-04-09T10:12:55;102071.03;;;15.64;42.96
71504;BME280;59323;50.874;7.028;2023-04-09T10:15:22;102069.56;;;15.51;44.31
71504;BME280;59323;50.874;7.028;2023-04-09T10:17:47;102068.56;;;15.82;45.49
71504;BME280;59323;50.874;7.028;2023-04-09T10:20:18;102069.13;;;15.68;43.84
71504;BME280;59323;50.874;7.028;2023-04-09T10:22:49;102073.25;;;15.81;45.73
71504;BME280;59323;50.874;7.028;2023-04-09T10:25:15;102070.56;;;15.85;45.91
71504;BME280;59323;50.874;7.028;2023-04-09T10:27:42;102075.59;;;16.06;44.89
71504;BME280;59323;50.874;7.028;2023-04-09T10:30:35;102071.09;;;16.21;45.04
71504;BME280;59323;50.874;7.028;2023-04-09T10:33:14;102070.84;;;16.03;43.78
71504;BME280;59323;50.874;7.028;2023-04-09T10:35:41;102069.63;;;16.00;44.56
71504;BME280;59323;50.874;7.028;2023-04-09T10:38:09;102061.50;;;15.81;43.29
71504;BME280;59323;50.874;7.028;2023-04-09T10:40:41;102061.22;;;15.63;43.98
71504;BME280;59323;50.874;7.028;2023-04-09T10:43:11;102060.03;;;15.87;45.69
71504;BME280;59323;50.874;7.028;2023-04-09T10:45:39;102061.81;;;16.02;44.96
71504;BME280;59323;50.874;7.028;2023-04-09T10:48:12;102053.03;;;16.16;44.75
71504;BME280;59323;50.874;7.028;2023-04-09T10:50:40;102064.16;;;16.27;44.12
71504;BME280;59323;50.874;7.028;2023-04-09T10:53:06;102057.25;;;16.36;45.18
71504;BME280;59323;50.874;7.028;2023-04-09T10:58:07;102059.72;;;16.45;43.21
71504;BME280;59323;50.874;7.028;2023-04-09T11:00:36;102057.28;;;16.13;42.85
71504;BME280;59323;50.874;7.028;2023-04-09T11:03:12;102055.06;;;15.96;43.07
71504;BME280;59323;50.874;7.028;2023-04-09T11:05:47;102051.78;;;15.61;44.92
71504;BME280;59323;50.874;7.028;2023-04-09T11:08:15;102049.97;;;15.49;45.30
71504;BME280;59323;50.874;7.028;2023-04-09T11:10:41;102037.47;;;15.51;44.27
71504;BME280;59323;50.874;7.028;2023-04-09T11:13:13;102039.13;;;15.33;46.30
71504;BME280;59323;50.874;7.028;2023-04-09T11:15:38;102045.34;;;15.30;45.27
71504;BME280;59323;50.874;7.028;2023-04-09T11:18:04;102040.63;;;14.88;45.79
71504;BME280;59323;50.874;7.028;2023-04-09T11:20:34;102035.66;;;14.94;45.91
71504;BME280;59323;50.874;7.028;2023-04-09T11:23:00;102037.16;;;14.91;46.11
71504;BME280;59323;50.874;7.028;2023-04-09T11:25:30;102029.31;;;15.09;47.22
71504;BME280;59323;50.874;7.028;2023-04-09T11:27:55;102020.25;;;15.28;47.18
71504;BME280;59323;50.874;7.028;2023-04-09T11:30:21;102023.91;;;15.36;46.33
71504;BME280;59323;50.874;7.028;2023-04-09T11:32:47;102016.97;;;15.42;45.29
71504;BME280;59323;50.874;7.028;2023-04-09T11:35:14;102014.16;;;15.38;44.96
71504;BME280;59323;50.874;7.028;2023-04-09T11:37:42;102018.91;;;15.18;46.19
71504;BME280;59323;50.874;7.028;2023-04-09T11:40:19;102007.66;;;15.01;46.58
71504;BME280;59323;50.874;7.028;2023-04-09T11:42:45;102010.88;;;15.06;47.01
71504;BME280;59323;50.874;7.028;2023-04-09T11:45:14;102013.84;;;14.98;46.24
71504;BME280;59323;50.874;7.028;2023-04-09T11:47:39;102023.84;;;14.90;46.67
71504;BME280;59323;50.874;7.028;2023-04-09T11:50:07;102022.63;;;15.07;45.38
71504;BME280;59323;50.874;7.028;2023-04-09T11:52:32;102019.44;;;15.05;45.95
71504;BME280;59323;50.874;7.028;2023-04-09T11:55:06;102015.19;;;15.07;45.21
71504;BME280;59323;50.874;7.028;2023-04-09T11:57:42;102009.94;;;14.99;46.22
71504;BME280;59323;50.874;7.028;2023-04-09T12:00:10;102011.59;;;15.03;45.77
71504;BME280;59323;50.874;7.028;2023-04-09T12:02:40;102010.31;;;14.97;46.42
71504;BME280;59323;50.874;7.028;2023-04-09T12:05:08;102016.34;;;15.06;45.94
71504;BME280;59323;50.874;7.028;2023-04-09T12:07:34;102017.44;;;15.02;46.46
71504;BME280;59323;50.874;7.028;2023-04-09T12:10:04;102019.16;;;15.10;46.31
71504;BME280;59323;50.874;7.028;2023-04-09T12:12:30;102021.59;;;15.38;46.27
71504;BME280;59323;50.874;7.028;2023-04-09T12:14:55;102019.03;;;15.26;46.58
71504;BME280;59323;50.874;7.028;2023-04-09T12:17:29;102016.72;;;15.05;46.00
71504;BME280;59323;50.874;7.028;2023-04-09T12:19:58;102003.81;;;15.05;45.31
71504;BME280;59323;50.874;7.028;2023-04-09T12:22:23;102010.16;;;14.90;44.46
71504;BME280;59323;50.874;7.028;2023-04-09T12:24:48;102003.31;;;15.00;44.97
71504;BME280;59323;50.874;7.028;2023-04-09T12:27:14;102005.59;;;15.17;45.97
71504;BME280;59323;50.874;7.028;2023-04-09T12:29:40;102005.34;;;15.26;46.60
71504;BME280;59323;50.874;7.028;2023-04-09T12:32:05;101999.50;;;15.27;44.42
71504;BME280;59323;50.874;7.028;2023-04-09T12:34:31;102003.41;;;15.26;45.19
71504;BME280;59323;50.874;7.028;2023-04-09T12:36:56;101995.31;;;15.10;44.58
71504;BME280;59323;50.874;7.028;2023-04-09T12:39:22;101987.00;;;14.65;45.01
71504;BME280;59323;50.874;7.028;2023-04-09T12:41:47;101993.47;;;14.56;47.04
71504;BME280;59323;50.874;7.028;2023-04-09T12:44:12;101992.75;;;14.59;45.59
71504;BME280;59323;50.874;7.028;2023-04-09T12:46:38;102002.81;;;14.75;46.31
71504;BME280;59323;50.874;7.028;2023-04-09T12:49:03;102003.31;;;14.80;46.48
71504;BME280;59323;50.874;7.028;2023-04-09T12:51:29;101993.66;;;15.06;45.95
71504;BME280;59323;50.874;7.028;2023-04-09T12:53:55;101991.78;;;15.33;45.61
71504;BME280;59323;50.874;7.028;2023-04-09T12:56:20;101989.81;;;15.10;44.81
71504;BME280;59323;50.874;7.028;2023-04-09T12:58:45;101984.78;;;15.12;45.85
71504;BME280;59323;50.874;7.028;2023-04-09T13:01:11;101995.00;;;15.15;46.44
71504;BME280;59323;50.874;7.028;2023-04-09T13:03:36;101991.41;;;15.11;46.05